Time,TemperatureF,DewpointF,PressureIn,WindDirection,WindDirectionDegrees,WindSpeedMPH,WindSpeedGustMPH,Humidity,HourlyPrecipIn,Conditions,Clouds,dailyrainin,SoftwareType,DateUTC
2013-01-01 00:01:00,32.9,31.1,30.27,NE,37,2.0,4.0,93,0.00,,,0.00,meteohub,2013-01-01 08:01:00,
2013-01-01 00:06:00,33.1,31.3,30.27,NE,37,3.0,4.0,93,0.00,,,0.00,meteohub,2013-01-01 08:06:00,
2013-01-01 00:11:00,32.4,30.6,30.27,NE,37,0.0,3.0,93,0.00,,,0.00,meteohub,2013-01-01 08:11:00,
2013-01-01 00:16:00,31.8,30.4,30.27,NE,37,0.0,3.0,94,0.00,,,0.00,meteohub,2013-01-01 08:16:00,
2013-01-01 00:21:00,33.6,32.5,30.27,NE,37,1.0,3.0,96,0.00,,,0.00,meteohub,2013-01-01 08:21:00,
2013-01-01 00:26:00,35.2,33.6,30.26,NE,37,1.0,3.0,94,0.00,,,0.00,meteohub,2013-01-01 08:26:00,
2013-01-01 00:31:00,35.8,33.6,30.25,NE,37,1.0,3.0,92,0.00,,,0.00,meteohub,2013-01-01 08:31:00,
2013-01-01 00:36:00,35.2,32.4,30.24,NE,37,0.0,3.0,89,0.00,,,0.00,meteohub,2013-01-01 08:36:00,
2013-01-01 00:41:00,33.4,30.6,30.25,NE,37,2.0,3.0,89,0.00,,,0.00,meteohub,2013-01-01 08:41:00,
2013-01-01 00:46:00,32.5,30.6,30.25,NE,37,0.0,2.0,92,0.00,,,0.00,meteohub,2013-01-01 08:46:00,
2013-01-01 00:51:00,32.5,30.9,30.25,NE,37,0.0,2.0,94,0.00,,,0.00,meteohub,2013-01-01 08:51:00,
2013-01-01 00:56:00,31.8,30.0,30.25,NE,37,0.0,2.0,93,0.00,,,0.00,meteohub,2013-01-01 08:56:00,
2013-01-01 01:01:00,31.3,29.8,30.25,NE,37,3.0,3.0,94,0.00,,,0.00,meteohub,2013-01-01 09:01:00,
2013-01-01 01:06:00,31.6,30.4,30.25,NE,37,1.0,3.0,95,0.00,,,0.00,meteohub,2013-01-01 09:06:00,
2013-01-01 01:11:00,30.7,29.3,30.25,NE,37,0.0,3.0,94,0.00,,,0.00,meteohub,2013-01-01 09:11:00,
2013-01-01 01:16:00,30.7,29.5,30.25,NE,37,0.0,3.0,95,0.00,,,0.00,meteohub,2013-01-01 09:16:00,
2013-01-01 01:21:00,30.4,29.1,30.25,NE,37,4.0,4.0,95,0.00,,,0.00,meteohub,2013-01-01 09:21:00,
2013-01-01 01:26:00,30.6,29.5,30.27,NE,37,3.0,4.0,96,0.00,,,0.00,meteohub,2013-01-01 09:26:00,
2013-01-01 01:31:00,30.7,29.5,30.26,NE,37,2.0,4.0,95,0.00,,,0.00,meteohub,2013-01-01 09:31:00,
2013-01-01 01:36:00,31.5,30.4,30.26,NE,37,0.0,4.0,96,0.00,,,0.00,meteohub,2013-01-01 09:36:00,
2013-01-01 01:41:00,31.3,30.2,30.26,NE,37,3.0,4.0,96,0.00,,,0.00,meteohub,2013-01-01 09:41:00,
2013-01-01 01:46:00,30.7,29.7,30.27,NE,49,3.0,5.0,96,0.00,,,0.00,meteohub,2013-01-01 09:46:00,
2013-01-01 01:51:00,32.0,30.9,30.27,NE,49,3.0,5.0,96,0.00,,,0.00,meteohub,2013-01-01 09:51:00,
2013-01-01 01:56:00,32.9,31.8,30.27,NE,49,4.0,5.0,96,0.00,,,0.00,meteohub,2013-01-01 09:56:00,
2013-01-01 02:01:00,33.4,32.4,30.27,NE,49,3.0,4.0,96,0.00,,,0.00,meteohub,2013-01-01 10:01:00,
2013-01-01 02:06:00,33.6,32.4,30.27,NE,49,3.0,5.0,95,0.00,,,0.00,meteohub,2013-01-01 10:06:00,
2013-01-01 02:11:00,33.1,31.5,30.27,NE,55,3.0,5.0,94,0.00,,,0.00,meteohub,2013-01-01 10:11:00,
2013-01-01 02:16:00,34.2,32.9,30.27,NE,44,4.0,5.0,95,0.00,,,0.00,meteohub,2013-01-01 10:16:00,
2013-01-01 02:21:00,34.2,31.8,30.27,NE,34,4.0,5.0,91,0.00,,,0.00,meteohub,2013-01-01 10:21:00,
2013-01-01 02:26:00,33.6,31.5,30.27,NNE,26,3.0,5.0,92,0.00,,,0.00,meteohub,2013-01-01 10:26:00,
2013-01-01 02:31:00,34.2,32.4,30.27,ENE,61,4.0,6.0,93,0.00,,,0.00,meteohub,2013-01-01 10:31:00,
2013-01-01 02:37:00,34.9,32.7,30.27,NNE,17,5.0,6.0,92,0.00,,,0.00,meteohub,2013-01-01 10:37:00,
2013-01-01 02:42:00,35.2,32.9,30.27,NE,38,4.0,8.0,91,0.00,,,0.00,meteohub,2013-01-01 10:42:00,
2013-01-01 02:47:00,35.6,32.7,30.27,NE,40,4.0,10.0,89,0.00,,,0.00,meteohub,2013-01-01 10:47:00,
2013-01-01 02:52:00,36.0,33.1,30.27,NNE,26,3.0,10.0,89,0.00,,,0.00,meteohub,2013-01-01 10:52:00,
2013-01-01 02:57:00,36.3,32.9,30.27,NE,39,3.0,10.0,87,0.00,,,0.00,meteohub,2013-01-01 10:57:00,
2013-01-01 03:02:00,36.7,32.9,30.27,NNE,30,8.0,11.0,86,0.00,,,0.00,meteohub,2013-01-01 11:02:00,
2013-01-01 03:07:00,36.7,32.4,30.27,NE,53,10.0,12.0,84,0.00,,,0.00,meteohub,2013-01-01 11:07:00,
2013-01-01 03:12:00,36.7,32.0,30.27,NE,50,8.0,12.0,83,0.00,,,0.00,meteohub,2013-01-01 11:12:00,
2013-01-01 03:17:00,36.7,31.5,30.28,NE,36,6.0,12.0,81,0.00,,,0.00,meteohub,2013-01-01 11:17:00,
2013-01-01 03:22:00,36.7,30.7,30.28,NE,45,7.0,14.0,79,0.00,,,0.00,meteohub,2013-01-01 11:22:00,
2013-01-01 03:27:00,36.9,30.6,30.28,NNE,32,7.0,14.0,78,0.00,,,0.00,meteohub,2013-01-01 11:27:00,
2013-01-01 03:32:00,36.9,30.4,30.28,NE,44,10.0,14.0,77,0.00,,,0.00,meteohub,2013-01-01 11:32:00,
2013-01-01 03:37:00,37.0,30.2,30.28,NE,42,7.0,13.0,76,0.00,,,0.00,meteohub,2013-01-01 11:37:00,
2013-01-01 03:42:00,37.0,30.2,30.28,NE,38,11.0,13.0,76,0.00,,,0.00,meteohub,2013-01-01 11:42:00,
2013-01-01 03:47:00,36.9,30.4,30.28,NNE,18,8.0,14.0,77,0.00,,,0.00,meteohub,2013-01-01 11:47:00,
2013-01-01 03:52:00,36.7,30.2,30.28,NE,34,7.0,14.0,77,0.00,,,0.00,meteohub,2013-01-01 11:52:00,
2013-01-01 03:57:00,36.5,29.7,30.28,NE,36,9.0,14.0,76,0.00,,,0.00,meteohub,2013-01-01 11:57:00,
2013-01-01 04:02:00,36.3,29.1,30.28,NE,36,8.0,13.0,75,0.00,,,0.00,meteohub,2013-01-01 12:02:00,
2013-01-01 04:07:00,36.3,28.8,30.28,NE,39,9.0,13.0,74,0.00,,,0.00,meteohub,2013-01-01 12:07:00,
2013-01-01 04:12:00,36.3,28.8,30.27,NE,34,10.0,13.0,74,0.00,,,0.00,meteohub,2013-01-01 12:12:00,
2013-01-01 04:17:00,36.1,28.9,30.27,NE,50,7.0,13.0,75,0.00,,,0.00,meteohub,2013-01-01 12:17:00,
2013-01-01 04:22:00,36.0,29.1,30.27,North,355,11.0,13.0,76,0.00,,,0.00,meteohub,2013-01-01 12:22:00,
2013-01-01 04:27:00,36.0,29.1,30.27,ENE,57,10.0,13.0,76,0.00,,,0.00,meteohub,2013-01-01 12:27:00,
2013-01-01 04:32:00,35.8,28.9,30.27,NNE,28,8.0,12.0,76,0.00,,,0.00,meteohub,2013-01-01 12:32:00,
2013-01-01 04:37:00,35.8,28.9,30.27,NE,34,7.0,12.0,76,0.00,,,0.00,meteohub,2013-01-01 12:37:00,
2013-01-01 04:42:00,35.8,28.9,30.27,ENE,57,9.0,13.0,76,0.00,,,0.00,meteohub,2013-01-01 12:42:00,
2013-01-01 04:47:00,36.0,28.8,30.27,NE,40,12.0,13.0,75,0.00,,,0.00,meteohub,2013-01-01 12:47:00,
2013-01-01 04:52:00,36.1,28.6,30.27,NE,44,9.0,16.0,74,0.00,,,0.00,meteohub,2013-01-01 12:52:00,
2013-01-01 04:57:00,36.1,28.4,30.27,NE,35,11.0,16.0,73,0.00,,,0.00,meteohub,2013-01-01 12:57:00,
2013-01-01 05:02:00,36.1,28.0,30.27,NE,37,8.0,16.0,72,0.00,,,0.00,meteohub,2013-01-01 13:02:00,
2013-01-01 05:07:00,36.1,28.0,30.28,NE,38,10.0,14.0,72,0.00,,,0.00,meteohub,2013-01-01 13:07:00,
2013-01-01 05:12:00,36.0,27.9,30.28,NE,49,5.0,14.0,72,0.00,,,0.00,meteohub,2013-01-01 13:12:00,
2013-01-01 05:17:00,36.0,27.9,30.28,NE,45,6.0,12.0,72,0.00,,,0.00,meteohub,2013-01-01 13:17:00,
2013-01-01 05:22:00,35.8,27.7,30.27,NNE,27,8.0,12.0,72,0.00,,,0.00,meteohub,2013-01-01 13:22:00,
2013-01-01 05:27:00,35.8,27.7,30.28,ENE,64,9.0,11.0,72,0.00,,,0.00,meteohub,2013-01-01 13:27:00,
2013-01-01 05:32:00,35.6,27.5,30.28,NE,42,7.0,11.0,72,0.00,,,0.00,meteohub,2013-01-01 13:32:00,
2013-01-01 05:37:00,35.4,27.3,30.28,NE,39,9.0,13.0,72,0.00,,,0.00,meteohub,2013-01-01 13:37:00,
2013-01-01 05:42:00,35.4,27.3,30.28,NNE,33,6.0,13.0,72,0.00,,,0.00,meteohub,2013-01-01 13:42:00,
2013-01-01 05:47:00,35.4,27.7,30.28,NNE,29,6.0,13.0,73,0.00,,,0.00,meteohub,2013-01-01 13:47:00,
2013-01-01 05:52:00,35.2,27.9,30.28,NE,40,8.0,11.0,74,0.00,,,0.00,meteohub,2013-01-01 13:52:00,
2013-01-01 05:57:00,35.2,27.9,30.28,NE,36,8.0,12.0,74,0.00,,,0.00,meteohub,2013-01-01 13:57:00,
2013-01-01 06:02:00,35.2,27.9,30.28,NE,39,6.0,14.0,74,0.00,,,0.00,meteohub,2013-01-01 14:02:00,
2013-01-01 06:07:00,35.2,27.9,30.28,ENE,58,9.0,14.0,74,0.00,,,0.00,meteohub,2013-01-01 14:07:00,
2013-01-01 06:12:00,35.4,28.0,30.29,NE,46,7.0,14.0,74,0.00,,,0.00,meteohub,2013-01-01 14:12:00,
2013-01-01 06:17:00,35.4,28.6,30.29,NE,36,10.0,15.0,76,0.00,,,0.00,meteohub,2013-01-01 14:17:00,
2013-01-01 06:22:00,35.2,28.8,30.29,NNE,22,9.0,15.0,77,0.00,,,0.00,meteohub,2013-01-01 14:22:00,
2013-01-01 06:27:00,35.2,28.8,30.29,NE,42,9.0,15.0,77,0.00,,,0.00,meteohub,2013-01-01 14:27:00,
2013-01-01 06:32:00,35.2,29.1,30.29,NE,49,8.0,15.0,78,0.00,,,0.00,meteohub,2013-01-01 14:32:00,
2013-01-01 06:37:00,35.1,29.1,30.29,NNE,28,10.0,17.0,79,0.00,,,0.00,meteohub,2013-01-01 14:37:00,
2013-01-01 06:43:00,35.1,29.5,30.29,NE,36,9.0,17.0,80,0.00,,,0.00,meteohub,2013-01-01 14:43:00,
2013-01-01 06:48:00,35.1,29.5,30.29,NNE,22,9.0,17.0,80,0.00,,,0.00,meteohub,2013-01-01 14:48:00,
2013-01-01 06:53:00,35.1,29.8,30.29,NNE,24,11.0,15.0,81,0.00,,,0.00,meteohub,2013-01-01 14:53:00,
2013-01-01 06:58:00,35.1,30.2,30.29,NE,47,12.0,15.0,82,0.00,,,0.00,meteohub,2013-01-01 14:58:00,
2013-01-01 07:03:00,35.1,30.2,30.29,NE,37,8.0,15.0,82,0.00,,,0.00,meteohub,2013-01-01 15:03:00,
2013-01-01 07:08:00,35.1,29.8,30.28,NNE,30,9.0,15.0,81,0.00,,,0.00,meteohub,2013-01-01 15:08:00,
2013-01-01 07:13:00,34.9,29.7,30.28,NE,42,6.0,15.0,81,0.00,,,0.00,meteohub,2013-01-01 15:13:00,
2013-01-01 07:18:00,34.5,29.3,30.28,NE,44,13.0,14.0,81,0.00,,,0.00,meteohub,2013-01-01 15:18:00,
2013-01-01 07:23:00,34.5,28.9,30.28,NNE,32,8.0,13.0,80,0.00,,,0.00,meteohub,2013-01-01 15:23:00,
2013-01-01 07:28:00,34.5,28.9,30.28,NE,54,11.0,14.0,80,0.00,,,0.00,meteohub,2013-01-01 15:28:00,
2013-01-01 07:33:00,34.5,28.9,30.28,ENE,61,10.0,14.0,80,0.00,,,0.00,meteohub,2013-01-01 15:33:00,
2013-01-01 07:38:00,34.7,28.9,30.29,NE,36,8.0,14.0,79,0.00,,,0.00,meteohub,2013-01-01 15:38:00,
2013-01-01 07:43:00,34.7,28.6,30.28,NE,42,8.0,14.0,78,0.00,,,0.00,meteohub,2013-01-01 15:43:00,
2013-01-01 07:48:00,34.9,28.8,30.28,NE,40,12.0,15.0,78,0.00,,,0.00,meteohub,2013-01-01 15:48:00,
2013-01-01 07:53:00,34.9,28.8,30.28,NE,37,9.0,15.0,78,0.00,,,0.00,meteohub,2013-01-01 15:53:00,
2013-01-01 07:58:00,35.1,28.9,30.29,NE,38,8.0,15.0,78,0.00,,,0.00,meteohub,2013-01-01 15:58:00,
2013-01-01 08:03:00,35.1,28.9,30.29,NNE,32,12.0,14.0,78,0.00,,,0.00,meteohub,2013-01-01 16:03:00,
2013-01-01 08:08:00,35.2,29.1,30.28,NE,50,8.0,14.0,78,0.00,,,0.00,meteohub,2013-01-01 16:08:00,
2013-01-01 08:13:00,35.2,29.1,30.28,NE,51,12.0,15.0,78,0.00,,,0.00,meteohub,2013-01-01 16:13:00,
2013-01-01 08:18:00,35.4,29.5,30.28,NNE,28,11.0,16.0,79,0.00,,,0.00,meteohub,2013-01-01 16:18:00,
2013-01-01 08:23:00,35.4,29.5,30.28,NE,49,10.0,16.0,79,0.00,,,0.00,meteohub,2013-01-01 16:23:00,
2013-01-01 08:28:00,35.6,30.0,30.28,NE,38,9.0,16.0,80,0.00,,,0.00,meteohub,2013-01-01 16:28:00,
2013-01-01 08:33:00,35.8,30.2,30.28,NE,42,14.0,15.0,80,0.00,,,0.00,meteohub,2013-01-01 16:33:00,
2013-01-01 08:38:00,36.0,30.0,30.28,NE,35,12.0,14.0,79,0.00,,,0.00,meteohub,2013-01-01 16:38:00,
2013-01-01 08:43:00,36.0,30.0,30.28,ENE,57,10.0,15.0,79,0.00,,,0.00,meteohub,2013-01-01 16:43:00,
2013-01-01 08:48:00,36.0,30.0,30.29,North,0,8.0,15.0,79,0.00,,,0.00,meteohub,2013-01-01 16:48:00,
2013-01-01 08:53:00,36.1,30.2,30.29,NE,40,10.0,15.0,79,0.00,,,0.00,meteohub,2013-01-01 16:53:00,
2013-01-01 08:58:00,36.1,30.2,30.29,NE,52,8.0,15.0,79,0.00,,,0.00,meteohub,2013-01-01 16:58:00,
2013-01-01 09:03:00,36.5,30.6,30.29,ENE,59,10.0,15.0,79,0.00,,,0.00,meteohub,2013-01-01 17:03:00,
2013-01-01 09:08:00,36.7,30.7,30.29,ENE,59,8.0,15.0,79,0.00,,,0.00,meteohub,2013-01-01 17:08:00,
2013-01-01 09:13:00,36.7,30.7,30.30,ENE,59,9.0,15.0,79,0.00,,,0.00,meteohub,2013-01-01 17:13:00,
2013-01-01 09:18:00,36.9,30.9,30.30,NE,44,9.0,14.0,79,0.00,,,0.00,meteohub,2013-01-01 17:18:00,
2013-01-01 09:23:00,36.9,30.9,30.30,NE,56,8.0,14.0,79,0.00,,,0.00,meteohub,2013-01-01 17:23:00,
2013-01-01 09:28:00,37.0,31.1,30.30,NE,51,9.0,14.0,79,0.00,,,0.00,meteohub,2013-01-01 17:28:00,
2013-01-01 09:33:00,37.0,31.1,30.30,NE,36,11.0,14.0,79,0.00,,,0.00,meteohub,2013-01-01 17:33:00,
2013-01-01 09:38:00,37.2,31.3,30.30,NNE,29,7.0,14.0,79,0.00,,,0.00,meteohub,2013-01-01 17:38:00,
2013-01-01 09:43:00,37.4,31.5,30.30,NNE,28,5.0,14.0,79,0.00,,,0.00,meteohub,2013-01-01 17:43:00,
2013-01-01 09:48:00,37.6,31.6,30.30,NE,53,9.0,12.0,79,0.00,,,0.00,meteohub,2013-01-01 17:48:00,
2013-01-01 09:53:00,37.9,31.6,30.30,North,355,5.0,11.0,78,0.00,,,0.00,meteohub,2013-01-01 17:53:00,
2013-01-01 09:58:00,38.1,31.6,30.31,NNE,23,8.0,12.0,77,0.00,,,0.00,meteohub,2013-01-01 17:58:00,
2013-01-01 10:03:00,38.5,31.8,30.32,NE,41,11.0,14.0,77,0.00,,,0.00,meteohub,2013-01-01 18:03:00,
2013-01-01 10:08:00,38.7,31.8,30.32,NE,49,14.0,16.0,76,0.00,,,0.00,meteohub,2013-01-01 18:08:00,
2013-01-01 10:13:00,38.8,31.3,30.32,ENE,57,12.0,16.0,74,0.00,,,0.00,meteohub,2013-01-01 18:13:00,
2013-01-01 10:18:00,38.8,30.9,30.32,NE,53,14.0,16.0,73,0.00,,,0.00,meteohub,2013-01-01 18:18:00,
2013-01-01 10:23:00,38.8,30.9,30.32,NNE,22,10.0,17.0,73,0.00,,,0.00,meteohub,2013-01-01 18:23:00,
2013-01-01 10:29:00,39.0,30.7,30.32,North,5,10.0,17.0,72,0.00,,,0.00,meteohub,2013-01-01 18:29:00,
2013-01-01 10:34:00,39.0,30.7,30.32,North,355,9.0,17.0,72,0.00,,,0.00,meteohub,2013-01-01 18:34:00,
2013-01-01 10:39:00,39.6,31.3,30.31,North,0,9.0,16.0,72,0.00,,,0.00,meteohub,2013-01-01 18:39:00,
2013-01-01 10:44:00,39.7,31.1,30.32,NE,44,11.0,19.0,71,0.00,,,0.00,meteohub,2013-01-01 18:44:00,
2013-01-01 10:49:00,39.9,31.3,30.32,NNE,19,11.0,19.0,71,0.00,,,0.00,meteohub,2013-01-01 18:49:00,
2013-01-01 10:54:00,40.3,31.3,30.32,NNE,26,9.0,19.0,70,0.00,,,0.00,meteohub,2013-01-01 18:54:00,
2013-01-01 10:59:00,40.5,31.5,30.32,NE,34,10.0,18.0,70,0.00,,,0.00,meteohub,2013-01-01 18:59:00,
2013-01-01 11:04:00,40.5,31.5,30.31,NNE,31,5.0,18.0,70,0.00,,,0.00,meteohub,2013-01-01 19:04:00,
2013-01-01 11:09:00,41.2,32.2,30.31,ENE,72,4.0,18.0,70,0.00,,,0.00,meteohub,2013-01-01 19:09:00,
2013-01-01 11:14:00,41.0,32.0,30.31,North,355,8.0,15.0,70,0.00,,,0.00,meteohub,2013-01-01 19:14:00,
2013-01-01 11:19:00,40.8,31.5,30.31,ENE,67,8.0,14.0,69,0.00,,,0.00,meteohub,2013-01-01 19:19:00,
2013-01-01 11:24:00,41.4,31.6,30.31,NE,34,10.0,11.0,68,0.00,,,0.00,meteohub,2013-01-01 19:24:00,
2013-01-01 11:29:00,41.4,31.6,30.31,NNE,31,4.0,15.0,68,0.00,,,0.00,meteohub,2013-01-01 19:29:00,
2013-01-01 11:34:00,41.4,31.6,30.31,NE,37,11.0,15.0,68,0.00,,,0.00,meteohub,2013-01-01 19:34:00,
2013-01-01 11:39:00,41.7,32.0,30.31,ENE,63,10.0,16.0,68,0.00,,,0.00,meteohub,2013-01-01 19:39:00,
2013-01-01 11:44:00,42.3,31.6,30.30,NE,39,16.0,16.0,66,0.00,,,0.00,meteohub,2013-01-01 19:44:00,
2013-01-01 11:49:00,42.6,32.0,30.30,NNE,23,9.0,18.0,66,0.00,,,0.00,meteohub,2013-01-01 19:49:00,
2013-01-01 11:54:00,43.0,31.6,30.30,ENE,61,10.0,18.0,64,0.00,,,0.00,meteohub,2013-01-01 19:54:00,
2013-01-01 11:59:00,43.3,32.0,30.29,ENE,74,11.0,18.0,64,0.00,,,0.00,meteohub,2013-01-01 19:59:00,
2013-01-01 12:04:00,43.5,30.9,30.29,ENE,57,8.0,18.0,61,0.00,,,0.00,meteohub,2013-01-01 20:04:00,
2013-01-01 12:09:00,43.7,30.4,30.29,NE,38,15.0,18.0,59,0.00,,,0.00,meteohub,2013-01-01 20:09:00,
2013-01-01 12:14:00,44.2,31.6,30.29,NNE,26,5.0,18.0,61,0.00,,,0.00,meteohub,2013-01-01 20:14:00,
2013-01-01 12:19:00,45.0,30.6,30.29,NE,54,11.0,18.0,57,0.00,,,0.00,meteohub,2013-01-01 20:19:00,
2013-01-01 12:24:00,45.0,30.2,30.28,NE,38,6.0,18.0,56,0.00,,,0.00,meteohub,2013-01-01 20:24:00,
2013-01-01 12:29:00,45.5,30.2,30.29,NNE,25,6.0,18.0,55,0.00,,,0.00,meteohub,2013-01-01 20:29:00,
2013-01-01 12:34:00,45.1,29.5,30.28,NE,40,7.0,18.0,54,0.00,,,0.00,meteohub,2013-01-01 20:34:00,
2013-01-01 12:39:00,45.3,29.1,30.28,ENE,63,7.0,18.0,53,0.00,,,0.00,meteohub,2013-01-01 20:39:00,
2013-01-01 12:44:00,45.7,29.5,30.28,NE,45,8.0,17.0,53,0.00,,,0.00,meteohub,2013-01-01 20:44:00,
2013-01-01 12:49:00,45.5,28.4,30.28,North,9,12.0,17.0,51,0.00,,,0.00,meteohub,2013-01-01 20:49:00,
2013-01-01 12:54:00,45.7,28.6,30.28,ENE,63,9.0,17.0,51,0.00,,,0.00,meteohub,2013-01-01 20:54:00,
2013-01-01 12:59:00,45.9,28.2,30.28,NNE,13,7.0,19.0,50,0.00,,,0.00,meteohub,2013-01-01 20:59:00,
2013-01-01 13:04:00,45.7,28.6,30.27,NNE,23,13.0,19.0,51,0.00,,,0.00,meteohub,2013-01-01 21:04:00,
2013-01-01 13:09:00,45.9,27.3,30.27,NE,48,6.0,19.0,48,0.00,,,0.00,meteohub,2013-01-01 21:09:00,
2013-01-01 13:14:00,46.0,27.5,30.28,ENE,69,5.0,19.0,48,0.00,,,0.00,meteohub,2013-01-01 21:14:00,
2013-01-01 13:19:00,45.9,27.3,30.28,NE,38,6.0,16.0,48,0.00,,,0.00,meteohub,2013-01-01 21:19:00,
2013-01-01 13:24:00,46.0,27.9,30.28,NE,46,7.0,14.0,49,0.00,,,0.00,meteohub,2013-01-01 21:24:00,
2013-01-01 13:29:00,46.2,27.7,30.27,ENE,57,5.0,14.0,48,0.00,,,0.00,meteohub,2013-01-01 21:29:00,
2013-01-01 13:34:00,46.8,29.7,30.27,NNE,32,6.0,12.0,51,0.00,,,0.00,meteohub,2013-01-01 21:34:00,
2013-01-01 13:39:00,46.9,28.2,30.27,NNE,30,9.0,12.0,48,0.00,,,0.00,meteohub,2013-01-01 21:39:00,
2013-01-01 13:44:00,46.8,27.7,30.27,NE,55,3.0,13.0,47,0.00,,,0.00,meteohub,2013-01-01 21:44:00,
2013-01-01 13:49:00,46.9,27.3,30.27,NNE,18,6.0,13.0,46,0.00,,,0.00,meteohub,2013-01-01 21:49:00,
2013-01-01 13:54:00,46.9,26.8,30.27,NE,35,4.0,14.0,45,0.00,,,0.00,meteohub,2013-01-01 21:54:00,
2013-01-01 13:59:00,46.6,26.4,30.26,ENE,60,8.0,14.0,45,0.00,,,0.00,meteohub,2013-01-01 21:59:00,
2013-01-01 14:04:00,46.8,28.0,30.27,NE,49,6.0,14.0,48,0.00,,,0.00,meteohub,2013-01-01 22:04:00,
2013-01-01 14:09:00,46.9,27.7,30.27,NE,36,4.0,14.0,47,0.00,,,0.00,meteohub,2013-01-01 22:09:00,
2013-01-01 14:14:00,47.5,28.2,30.27,ENE,57,9.0,14.0,47,0.00,,,0.00,meteohub,2013-01-01 22:14:00,
2013-01-01 14:19:00,47.8,28.6,30.27,NE,36,4.0,14.0,47,0.00,,,0.00,meteohub,2013-01-01 22:19:00,
2013-01-01 14:24:00,47.7,28.4,30.27,ENE,62,10.0,13.0,47,0.00,,,0.00,meteohub,2013-01-01 22:24:00,
2013-01-01 14:29:00,47.7,28.9,30.27,NE,34,5.0,14.0,48,0.00,,,0.00,meteohub,2013-01-01 22:29:00,
2013-01-01 14:34:00,47.7,27.9,30.27,ENE,69,8.0,16.0,46,0.00,,,0.00,meteohub,2013-01-01 22:34:00,
2013-01-01 14:39:00,47.7,28.4,30.27,NE,40,9.0,17.0,47,0.00,,,0.00,meteohub,2013-01-01 22:39:00,
2013-01-01 14:44:00,47.8,28.6,30.27,NNE,23,7.0,17.0,47,0.00,,,0.00,meteohub,2013-01-01 22:44:00,
2013-01-01 14:49:00,48.0,28.8,30.27,NE,36,7.0,17.0,47,0.00,,,0.00,meteohub,2013-01-01 22:49:00,
2013-01-01 14:54:00,48.2,28.4,30.27,NE,34,10.0,14.0,46,0.00,,,0.00,meteohub,2013-01-01 22:54:00,
2013-01-01 14:59:00,48.4,27.5,30.27,NNE,25,6.0,13.0,44,0.00,,,0.00,meteohub,2013-01-01 22:59:00,
2013-01-01 15:04:00,48.0,27.1,30.27,NE,43,7.0,12.0,44,0.00,,,0.00,meteohub,2013-01-01 23:04:00,
2013-01-01 15:09:00,48.0,26.6,30.27,NE,51,8.0,12.0,43,0.00,,,0.00,meteohub,2013-01-01 23:09:00,
2013-01-01 15:14:00,48.0,27.1,30.26,NE,36,10.0,14.0,44,0.00,,,0.00,meteohub,2013-01-01 23:14:00,
2013-01-01 15:19:00,47.8,26.4,30.26,NNE,23,8.0,16.0,43,0.00,,,0.00,meteohub,2013-01-01 23:19:00,
2013-01-01 15:24:00,47.8,27.0,30.26,ENE,58,8.0,16.0,44,0.00,,,0.00,meteohub,2013-01-01 23:24:00,
2013-01-01 15:29:00,47.8,27.0,30.26,NE,36,11.0,16.0,44,0.00,,,0.00,meteohub,2013-01-01 23:29:00,
2013-01-01 15:34:00,47.7,26.8,30.26,NNE,31,6.0,14.0,44,0.00,,,0.00,meteohub,2013-01-01 23:34:00,
2013-01-01 15:39:00,47.7,26.2,30.26,NNE,17,7.0,12.0,43,0.00,,,0.00,meteohub,2013-01-01 23:39:00,
2013-01-01 15:44:00,47.7,26.2,30.26,NE,45,7.0,12.0,43,0.00,,,0.00,meteohub,2013-01-01 23:44:00,
2013-01-01 15:50:00,47.5,26.6,30.26,NE,42,7.0,13.0,44,0.00,,,0.00,meteohub,2013-01-01 23:50:00,
2013-01-01 15:55:00,47.5,26.1,30.26,NE,56,7.0,15.0,43,0.00,,,0.00,meteohub,2013-01-01 23:55:00,
2013-01-01 16:00:00,47.5,26.1,30.26,ENE,59,7.0,15.0,43,0.00,,,0.00,meteohub,2013-01-02 00:00:00,
2013-01-01 16:05:00,47.1,25.2,30.26,NE,50,7.0,15.0,42,0.00,,,0.00,meteohub,2013-01-02 00:05:00,
2013-01-01 16:10:00,47.1,25.2,30.26,NE,51,13.0,15.0,42,0.00,,,0.00,meteohub,2013-01-02 00:10:00,
2013-01-01 16:15:00,46.9,25.0,30.26,NNE,26,8.0,15.0,42,0.00,,,0.00,meteohub,2013-01-02 00:15:00,
2013-01-01 16:20:00,46.8,25.5,30.26,ENE,59,9.0,17.0,43,0.00,,,0.00,meteohub,2013-01-02 00:20:00,
2013-01-01 16:25:00,46.8,24.8,30.26,ENE,63,10.0,17.0,42,0.00,,,0.00,meteohub,2013-01-02 00:25:00,
2013-01-01 16:30:00,46.8,24.3,30.25,NE,36,5.0,17.0,41,0.00,,,0.00,meteohub,2013-01-02 00:30:00,
2013-01-01 16:35:00,46.2,24.4,30.25,NE,45,8.0,14.0,42,0.00,,,0.00,meteohub,2013-01-02 00:35:00,
2013-01-01 16:40:00,46.2,25.0,30.25,NNE,33,9.0,14.0,43,0.00,,,0.00,meteohub,2013-01-02 00:40:00,
2013-01-01 16:45:00,46.0,24.8,30.25,NNE,30,6.0,13.0,43,0.00,,,0.00,meteohub,2013-01-02 00:45:00,
2013-01-01 16:50:00,45.9,25.2,30.25,NE,37,8.0,13.0,44,0.00,,,0.00,meteohub,2013-01-02 00:50:00,
2013-01-01 16:55:00,45.9,24.6,30.25,NE,41,10.0,13.0,43,0.00,,,0.00,meteohub,2013-01-02 00:55:00,
2013-01-01 17:00:00,46.0,24.8,30.25,NE,53,11.0,13.0,43,0.00,,,0.00,meteohub,2013-01-02 01:00:00,
2013-01-01 17:05:00,45.9,24.6,30.25,NE,55,9.0,13.0,43,0.00,,,0.00,meteohub,2013-01-02 01:05:00,
2013-01-01 17:10:00,45.9,24.1,30.25,NE,46,13.0,13.0,42,0.00,,,0.00,meteohub,2013-01-02 01:10:00,
2013-01-01 17:15:00,45.9,24.6,30.25,ENE,59,9.0,14.0,43,0.00,,,0.00,meteohub,2013-01-02 01:15:00,
2013-01-01 17:20:00,45.9,24.6,30.25,NE,51,8.0,15.0,43,0.00,,,0.00,meteohub,2013-01-02 01:20:00,
2013-01-01 17:25:00,46.0,24.3,30.25,ENE,57,14.0,15.0,42,0.00,,,0.00,meteohub,2013-01-02 01:25:00,
2013-01-01 17:30:00,46.2,23.9,30.25,NE,46,11.0,17.0,41,0.00,,,0.00,meteohub,2013-01-02 01:30:00,
2013-01-01 17:35:00,46.2,23.9,30.25,NE,46,11.0,17.0,41,0.00,,,0.00,meteohub,2013-01-02 01:35:00,
2013-01-01 17:40:00,46.0,24.3,30.26,NE,42,7.0,17.0,42,0.00,,,0.00,meteohub,2013-01-02 01:40:00,
2013-01-01 17:45:00,45.9,24.1,30.26,NE,39,8.0,15.0,42,0.00,,,0.00,meteohub,2013-01-02 01:45:00,
2013-01-01 17:50:00,45.7,23.9,30.25,NE,38,7.0,14.0,42,0.00,,,0.00,meteohub,2013-01-02 01:50:00,
2013-01-01 17:55:00,45.5,23.7,30.25,NE,46,10.0,13.0,42,0.00,,,0.00,meteohub,2013-01-02 01:55:00,
2013-01-01 18:00:00,45.7,23.9,30.25,ENE,65,11.0,13.0,42,0.00,,,0.00,meteohub,2013-01-02 02:00:00,
2013-01-01 18:05:00,45.9,22.8,30.26,NNE,15,11.0,15.0,40,0.00,,,0.00,meteohub,2013-01-02 02:05:00,
2013-01-01 18:10:00,46.0,23.7,30.26,NNE,23,10.0,16.0,41,0.00,,,0.00,meteohub,2013-01-02 02:10:00,
2013-01-01 18:15:00,46.2,22.6,30.26,NNE,20,8.0,16.0,39,0.00,,,0.00,meteohub,2013-01-02 02:15:00,
2013-01-01 18:20:00,46.2,22.6,30.26,NE,51,7.0,16.0,39,0.00,,,0.00,meteohub,2013-01-02 02:20:00,
2013-01-01 18:25:00,46.2,22.6,30.26,NE,40,11.0,16.0,39,0.00,,,0.00,meteohub,2013-01-02 02:25:00,
2013-01-01 18:30:00,46.4,22.1,30.26,NE,45,12.0,17.0,38,0.00,,,0.00,meteohub,2013-01-02 02:30:00,
2013-01-01 18:35:00,46.4,21.6,30.26,ENE,66,9.0,17.0,37,0.00,,,0.00,meteohub,2013-01-02 02:35:00,
2013-01-01 18:40:00,46.4,21.6,30.26,NE,51,11.0,17.0,37,0.00,,,0.00,meteohub,2013-01-02 02:40:00,
2013-01-01 18:45:00,46.4,21.6,30.26,NE,42,8.0,15.0,37,0.00,,,0.00,meteohub,2013-01-02 02:45:00,
2013-01-01 18:50:00,46.6,21.0,30.26,NE,41,10.0,16.0,36,0.00,,,0.00,meteohub,2013-01-02 02:50:00,
2013-01-01 18:55:00,46.4,21.6,30.26,NNE,30,8.0,16.0,37,0.00,,,0.00,meteohub,2013-01-02 02:55:00,
2013-01-01 19:00:00,46.4,20.8,30.26,NE,51,9.0,16.0,36,0.00,,,0.00,meteohub,2013-01-02 03:00:00,
2013-01-01 19:05:00,46.2,20.7,30.27,NNE,32,9.0,13.0,36,0.00,,,0.00,meteohub,2013-01-02 03:05:00,
2013-01-01 19:10:00,46.2,20.7,30.27,NE,45,9.0,16.0,36,0.00,,,0.00,meteohub,2013-01-02 03:10:00,
2013-01-01 19:15:00,46.2,20.7,30.27,NE,48,12.0,16.0,36,0.00,,,0.00,meteohub,2013-01-02 03:15:00,
2013-01-01 19:20:00,46.2,21.4,30.27,NE,44,11.0,16.0,37,0.00,,,0.00,meteohub,2013-01-02 03:20:00,
2013-01-01 19:25:00,46.2,20.7,30.27,ENE,57,8.0,15.0,36,0.00,,,0.00,meteohub,2013-01-02 03:25:00,
2013-01-01 19:30:00,46.2,20.7,30.27,NNE,26,7.0,15.0,36,0.00,,,0.00,meteohub,2013-01-02 03:30:00,
2013-01-01 19:35:00,46.0,20.5,30.27,NNE,30,8.0,15.0,36,0.00,,,0.00,meteohub,2013-01-02 03:35:00,
2013-01-01 19:40:00,46.2,20.7,30.27,NNE,19,9.0,14.0,36,0.00,,,0.00,meteohub,2013-01-02 03:40:00,
2013-01-01 19:45:00,46.0,20.5,30.27,NE,55,8.0,14.0,36,0.00,,,0.00,meteohub,2013-01-02 03:45:00,
2013-01-01 19:50:00,46.0,21.2,30.27,NE,44,8.0,13.0,37,0.00,,,0.00,meteohub,2013-01-02 03:50:00,
2013-01-01 19:55:00,45.9,20.5,30.28,NNE,29,9.0,13.0,36,0.00,,,0.00,meteohub,2013-01-02 03:55:00,
2013-01-01 20:00:00,45.9,21.0,30.28,NE,36,6.0,13.0,37,0.00,,,0.00,meteohub,2013-01-02 04:00:00,
2013-01-01 20:05:00,45.7,20.8,30.28,NNE,28,10.0,12.0,37,0.00,,,0.00,meteohub,2013-01-02 04:05:00,
2013-01-01 20:10:00,45.9,21.0,30.28,NNE,31,8.0,12.0,37,0.00,,,0.00,meteohub,2013-01-02 04:10:00,
2013-01-01 20:15:00,45.7,21.6,30.28,NE,39,5.0,12.0,38,0.00,,,0.00,meteohub,2013-01-02 04:15:00,
2013-01-01 20:20:00,45.9,21.0,30.28,North,5,9.0,13.0,37,0.00,,,0.00,meteohub,2013-01-02 04:20:00,
2013-01-01 20:25:00,45.9,20.5,30.28,NE,51,9.0,14.0,36,0.00,,,0.00,meteohub,2013-01-02 04:25:00,
2013-01-01 20:30:00,45.9,21.0,30.27,NNE,20,8.0,14.0,37,0.00,,,0.00,meteohub,2013-01-02 04:30:00,
2013-01-01 20:35:00,45.9,21.0,30.28,NE,49,6.0,14.0,37,0.00,,,0.00,meteohub,2013-01-02 04:35:00,
2013-01-01 20:40:00,45.7,20.8,30.27,NE,46,7.0,12.0,37,0.00,,,0.00,meteohub,2013-01-02 04:40:00,
2013-01-01 20:45:00,45.7,20.8,30.27,NE,49,8.0,12.0,37,0.00,,,0.00,meteohub,2013-01-02 04:45:00,
2013-01-01 20:50:00,45.9,21.0,30.27,NNE,17,8.0,15.0,37,0.00,,,0.00,meteohub,2013-01-02 04:50:00,
2013-01-01 20:55:00,45.9,21.0,30.27,ENE,70,8.0,15.0,37,0.00,,,0.00,meteohub,2013-01-02 04:55:00,
2013-01-01 21:00:00,45.9,20.5,30.27,NE,54,13.0,15.0,36,0.00,,,0.00,meteohub,2013-01-02 05:00:00,
2013-01-01 21:01:00,45.9,21.0,30.27,NE,56,12.0,15.0,37,0.00,,,0.00,meteohub,2013-01-02 05:01:00,
2013-01-01 21:02:00,45.9,20.5,30.27,NE,38,9.0,15.0,36,0.00,,,0.00,meteohub,2013-01-02 05:02:00,
2013-01-01 21:07:00,45.9,21.0,30.27,NNE,24,7.0,15.0,37,0.00,,,0.00,meteohub,2013-01-02 05:07:00,
2013-01-01 21:12:00,45.9,21.0,30.27,NE,54,13.0,15.0,37,0.00,,,0.00,meteohub,2013-01-02 05:12:00,
2013-01-01 21:17:00,45.7,20.8,30.27,NE,47,8.0,15.0,37,0.00,,,0.00,meteohub,2013-01-02 05:17:00,
2013-01-01 21:22:00,45.7,20.8,30.27,NNE,22,6.0,15.0,37,0.00,,,0.00,meteohub,2013-01-02 05:22:00,
2013-01-01 21:27:00,45.5,21.4,30.28,NE,54,10.0,15.0,38,0.00,,,0.00,meteohub,2013-01-02 05:27:00,
2013-01-01 21:32:00,45.1,21.0,30.28,NE,45,9.0,15.0,38,0.00,,,0.00,meteohub,2013-01-02 05:32:00,
2013-01-01 21:37:00,45.3,21.2,30.28,NNE,33,7.0,13.0,38,0.00,,,0.00,meteohub,2013-01-02 05:37:00,
2013-01-01 21:42:00,45.3,21.2,30.28,ENE,58,9.0,13.0,38,0.00,,,0.00,meteohub,2013-01-02 05:42:00,
2013-01-01 21:47:00,45.3,21.2,30.28,NE,47,8.0,13.0,38,0.00,,,0.00,meteohub,2013-01-02 05:47:00,
2013-01-01 21:52:00,45.1,20.5,30.28,NE,49,6.0,13.0,37,0.00,,,0.00,meteohub,2013-01-02 05:52:00,
2013-01-01 21:58:00,45.1,21.0,30.28,ENE,57,9.0,13.0,38,0.00,,,0.00,meteohub,2013-01-02 05:58:00,
2013-01-01 22:03:00,45.1,20.5,30.28,NE,35,6.0,13.0,37,0.00,,,0.00,meteohub,2013-01-02 06:03:00,
2013-01-01 22:08:00,45.1,21.0,30.28,NE,44,9.0,13.0,38,0.00,,,0.00,meteohub,2013-01-02 06:08:00,
2013-01-01 22:13:00,45.1,21.7,30.29,NE,45,10.0,14.0,39,0.00,,,0.00,meteohub,2013-01-02 06:13:00,
2013-01-01 22:18:00,45.0,20.8,30.29,NNE,33,6.0,14.0,38,0.00,,,0.00,meteohub,2013-01-02 06:18:00,
2013-01-01 22:23:00,45.0,20.8,30.28,NNE,32,4.0,14.0,38,0.00,,,0.00,meteohub,2013-01-02 06:23:00,
2013-01-01 22:28:00,44.6,20.5,30.29,NE,52,9.0,14.0,38,0.00,,,0.00,meteohub,2013-01-02 06:28:00,
2013-01-01 22:33:00,44.4,21.0,30.29,NE,40,6.0,12.0,39,0.00,,,0.00,meteohub,2013-01-02 06:33:00,
2013-01-01 22:38:00,44.4,21.0,30.28,NE,34,9.0,11.0,39,0.00,,,0.00,meteohub,2013-01-02 06:38:00,
2013-01-01 22:43:00,44.4,21.0,30.29,NE,40,6.0,12.0,39,0.00,,,0.00,meteohub,2013-01-02 06:43:00,
2013-01-01 22:48:00,44.4,21.0,30.29,NE,40,6.0,13.0,39,0.00,,,0.00,meteohub,2013-01-02 06:48:00,
2013-01-01 22:53:00,44.4,21.0,30.29,NE,44,6.0,13.0,39,0.00,,,0.00,meteohub,2013-01-02 06:53:00,
2013-01-01 22:58:00,44.4,21.0,30.29,NE,45,7.0,13.0,39,0.00,,,0.00,meteohub,2013-01-02 06:58:00,
2013-01-01 23:03:00,44.2,21.4,30.29,NNE,24,4.0,12.0,40,0.00,,,0.00,meteohub,2013-01-02 07:03:00,
2013-01-01 23:08:00,44.1,21.2,30.29,NE,53,6.0,12.0,40,0.00,,,0.00,meteohub,2013-01-02 07:08:00,
2013-01-01 23:13:00,44.1,21.2,30.29,NNE,23,9.0,11.0,40,0.00,,,0.00,meteohub,2013-01-02 07:13:00,
2013-01-01 23:18:00,44.2,21.4,30.28,NNE,22,10.0,14.0,40,0.00,,,0.00,meteohub,2013-01-02 07:18:00,
2013-01-01 23:23:00,44.1,21.2,30.28,NNE,29,9.0,15.0,40,0.00,,,0.00,meteohub,2013-01-02 07:23:00,
2013-01-01 23:28:00,44.1,21.2,30.29,NNE,32,8.0,15.0,40,0.00,,,0.00,meteohub,2013-01-02 07:28:00,
2013-01-01 23:33:00,44.1,21.2,30.28,NNE,32,9.0,15.0,40,0.00,,,0.00,meteohub,2013-01-02 07:33:00,
2013-01-01 23:38:00,44.1,21.2,30.28,NE,50,11.0,16.0,40,0.00,,,0.00,meteohub,2013-01-02 07:38:00,
2013-01-01 23:43:00,44.1,20.7,30.28,NE,46,11.0,16.0,39,0.00,,,0.00,meteohub,2013-01-02 07:43:00,
2013-01-01 23:48:00,44.1,21.2,30.28,NNE,19,8.0,17.0,40,0.00,,,0.00,meteohub,2013-01-02 07:48:00,
2013-01-01 23:53:00,44.1,21.2,30.28,NE,42,10.0,17.0,40,0.00,,,0.00,meteohub,2013-01-02 07:53:00,
2013-01-01 23:58:00,44.1,21.2,30.27,NE,46,16.0,17.0,40,0.00,,,0.00,meteohub,2013-01-02 07:58:00,